メインページ
METAR-TAF:

METAR-TAF

空港 :

プンタアレナス, チリ

緯度: 53-00S, 経度: 070-51W, 海抜: 37m

現時点の気象観測

当レポートは28分前の17:02(UTC)に作成
西/北西の風 18kt
気温 4°C
湿度 60%
気圧 988 hPa
視程10km以上
高度4000ftの雲はほとんどない
高度12000ftの雲は散在している

METAR: SCCI 231702Z 29018KT 9999 FEW040 SCT120 04/M03 Q0988 NOSIG

時間: 14:30 (17:30 UTC)

予報

当レポートは7時間15分前の10:15(UTC)に作成
予報は23日の 12時(UTC)から 24日の 12時(UTC)まで有効
西/北西の風 17kt
視程10km以上
高度4000ftの雲はほとんどない
確率 30% :
23日の 13時(UTC)から 23日の 16時(UTC)まで一時的に
視程: 8000m
高度1500ftの雲は散在している
高度3000ftの千切れ雲あり
弱いにわか雨, 雪, 弱いにわか雪
23日の 17時(UTC)から 23日の 23時(UTC)まで一時的に
北/北東の風 10kt
24日の 00時(UTC)から 24日の 02時(UTC)まで徐々に
の風 17kt
視程: 9000m
高度2000ftの雲は散在している
高度3000ftの千切れ雲あり
弱いにわか雪
24日の 05時(UTC)から 24日の 11時(UTC)まで一時的に
視程: 1000m
高度1000ftの千切れ雲あり
高度2000ftの曇り
激しいにわか雪
24日の 05時(UTC)から 24日の 08時(UTC)まで一時的に
の風 20kt、最大30ktの突風を伴う
24日の 10時(UTC)から 24日の 12時(UTC)まで徐々に
西の風 12kt

TAF: SCCI 231015Z 2312/2412 30017KT 9999 FEW040 TNM01/2410Z TX04/2318Z PROB30 TEMPO 2313/2316 8000 -SHRASN -SHSN SCT015 BKN030 TEMPO 2317/2323 02010KT BECMG 2400/2402 10017KT 9000 -SHSN SCT020 BKN030 TEMPO 2405/2411 1000 +SHSN BKN010 OVC020 TEMPO 2405/2408 17020G30KT BECMG 2410/2412 27012KT

4,000以上の空港の気象観測と天気予報(METAR報とTAF報)

利用可能な観測所は地図上に黄色い丸と赤い丸で示す。

丸の上にカーソルを重ねると観測所名を参照できる。

次にクリックすると気象観測と天気予報を参照できる。

マップの切り替え:黒色「×」印の緑ボタンをクリックして拡大、「-」印の緑ボタンをクリックして縮小、緑色の三角印をクリックして隣りの地図に切り替え


METAR-TAF: